sensor_id;sensor_type;location;lat;lon;timestamp;P1;durP1;ratioP1;P2;durP2;ratioP2
49217;SDS011;35045;51.194;7.268;2022-11-20T00:00:54;17.15;;;12.65;;
49217;SDS011;35045;51.194;7.268;2022-11-20T00:03:21;16.77;;;12.55;;
49217;SDS011;35045;51.194;7.268;2022-11-20T00:05:48;17.90;;;12.77;;
49217;SDS011;35045;51.194;7.268;2022-11-20T00:08:14;17.52;;;12.95;;
49217;SDS011;35045;51.194;7.268;2022-11-20T00:10:40;18.92;;;12.70;;
49217;SDS011;35045;51.194;7.268;2022-11-20T00:13:07;16.85;;;12.77;;
49217;SDS011;35045;51.194;7.268;2022-11-20T00:15:33;16.08;;;12.23;;
49217;SDS011;35045;51.194;7.268;2022-11-20T00:17:59;17.65;;;13.02;;
49217;SDS011;35045;51.194;7.268;2022-11-20T00:20:26;18.05;;;12.75;;
49217;SDS011;35045;51.194;7.268;2022-11-20T00:22:52;17.90;;;12.50;;
49217;SDS011;35045;51.194;7.268;2022-11-20T00:25:18;16.58;;;12.30;;
49217;SDS011;35045;51.194;7.268;2022-11-20T00:27:44;17.70;;;12.73;;
49217;SDS011;35045;51.194;7.268;2022-11-20T00:30:10;17.05;;;12.63;;
49217;SDS011;35045;51.194;7.268;2022-11-20T00:32:39;17.85;;;13.55;;
49217;SDS011;35045;51.194;7.268;2022-11-20T00:35:05;17.30;;;12.65;;
49217;SDS011;35045;51.194;7.268;2022-11-20T00:37:31;17.60;;;12.30;;
49217;SDS011;35045;51.194;7.268;2022-11-20T00:39:58;17.90;;;12.85;;
49217;SDS011;35045;51.194;7.268;2022-11-20T00:42:24;16.70;;;12.18;;
49217;SDS011;35045;51.194;7.268;2022-11-20T00:44:50;17.95;;;13.02;;
49217;SDS011;35045;51.194;7.268;2022-11-20T00:47:16;19.50;;;13.63;;
49217;SDS011;35045;51.194;7.268;2022-11-20T00:49:42;17.55;;;12.70;;
49217;SDS011;35045;51.194;7.268;2022-11-20T00:52:09;19.13;;;12.77;;
49217;SDS011;35045;51.194;7.268;2022-11-20T00:54:35;17.58;;;12.80;;
49217;SDS011;35045;51.194;7.268;2022-11-20T00:57:01;18.65;;;12.35;;
49217;SDS011;35045;51.194;7.268;2022-11-20T00:59:27;19.00;;;13.40;;
49217;SDS011;35045;51.194;7.268;2022-11-20T01:01:53;17.50;;;13.18;;
49217;SDS011;35045;51.194;7.268;2022-11-20T01:04:19;18.48;;;13.48;;
49217;SDS011;35045;51.194;7.268;2022-11-20T01:06:46;18.20;;;13.43;;
49217;SDS011;35045;51.194;7.268;2022-11-20T01:09:12;17.58;;;12.52;;
49217;SDS011;35045;51.194;7.268;2022-11-20T01:11:41;20.63;;;14.52;;
49217;SDS011;35045;51.194;7.268;2022-11-20T01:14:15;17.88;;;13.20;;
49217;SDS011;35045;51.194;7.268;2022-11-20T01:16:44;20.13;;;14.30;;
49217;SDS011;35045;51.194;7.268;2022-11-20T01:19:13;21.83;;;14.38;;
49217;SDS011;35045;51.194;7.268;2022-11-20T01:21:43;19.88;;;14.23;;
49217;SDS011;35045;51.194;7.268;2022-11-20T01:24:11;21.33;;;14.75;;
49217;SDS011;35045;51.194;7.268;2022-11-20T01:26:39;19.55;;;13.95;;
49217;SDS011;35045;51.194;7.268;2022-11-20T01:29:07;19.17;;;14.30;;
49217;SDS011;35045;51.194;7.268;2022-11-20T01:31:38;22.35;;;15.70;;
49217;SDS011;35045;51.194;7.268;2022-11-20T01:34:05;22.23;;;16.55;;
49217;SDS011;35045;51.194;7.268;2022-11-20T01:36:35;21.65;;;15.65;;
49217;SDS011;35045;51.194;7.268;2022-11-20T01:39:03;19.73;;;15.10;;
49217;SDS011;35045;51.194;7.268;2022-11-20T01:41:31;20.60;;;14.68;;
49217;SDS011;35045;51.194;7.268;2022-11-20T01:44:19;21.05;;;14.25;;
49217;SDS011;35045;51.194;7.268;2022-11-20T01:46:57;21.65;;;14.93;;
49217;SDS011;35045;51.194;7.268;2022-11-20T01:52:16;20.95;;;14.35;;
49217;SDS011;35045;51.194;7.268;2022-11-20T01:54:48;22.05;;;14.57;;
49217;SDS011;35045;51.194;7.268;2022-11-20T01:57:16;20.52;;;15.65;;
49217;SDS011;35045;51.194;7.268;2022-11-20T01:59:47;21.75;;;15.00;;
49217;SDS011;35045;51.194;7.268;2022-11-20T02:02:19;19.35;;;13.93;;
49217;SDS011;35045;51.194;7.268;2022-11-20T02:04:46;21.05;;;14.55;;
49217;SDS011;35045;51.194;7.268;2022-11-20T02:07:14;20.25;;;14.52;;
49217;SDS011;35045;51.194;7.268;2022-11-20T02:09:42;20.88;;;14.70;;
49217;SDS011;35045;51.194;7.268;2022-11-20T02:12:08;19.67;;;14.95;;
49217;SDS011;35045;51.194;7.268;2022-11-20T02:14:54;20.63;;;15.13;;
49217;SDS011;35045;51.194;7.268;2022-11-20T02:17:20;21.83;;;15.13;;
49217;SDS011;35045;51.194;7.268;2022-11-20T02:19:46;22.25;;;15.05;;
49217;SDS011;35045;51.194;7.268;2022-11-20T02:24:46;19.13;;;14.75;;
49217;SDS011;35045;51.194;7.268;2022-11-20T02:27:15;19.75;;;14.80;;
49217;SDS011;35045;51.194;7.268;2022-11-20T02:30:00;21.05;;;15.05;;
49217;SDS011;35045;51.194;7.268;2022-11-20T02:32:31;23.88;;;16.05;;
49217;SDS011;35045;51.194;7.268;2022-11-20T02:35:08;23.23;;;15.30;;
49217;SDS011;35045;51.194;7.268;2022-11-20T02:37:56;20.88;;;15.02;;
49217;SDS011;35045;51.194;7.268;2022-11-20T02:40:23;20.77;;;15.38;;
49217;SDS011;35045;51.194;7.268;2022-11-20T02:42:53;21.88;;;15.38;;
49217;SDS011;35045;51.194;7.268;2022-11-20T02:45:23;20.45;;;14.80;;
49217;SDS011;35045;51.194;7.268;2022-11-20T02:47:50;22.33;;;15.93;;
49217;SDS011;35045;51.194;7.268;2022-11-20T02:50:16;21.55;;;14.95;;
49217;SDS011;35045;51.194;7.268;2022-11-20T02:52:43;21.48;;;15.98;;
49217;SDS011;35045;51.194;7.268;2022-11-20T02:55:09;21.75;;;16.33;;
49217;SDS011;35045;51.194;7.268;2022-11-20T02:57:36;23.13;;;16.77;;
49217;SDS011;35045;51.194;7.268;2022-11-20T03:00:03;21.10;;;15.73;;
49217;SDS011;35045;51.194;7.268;2022-11-20T03:02:30;19.40;;;15.18;;
49217;SDS011;35045;51.194;7.268;2022-11-20T03:04:57;22.60;;;16.90;;
49217;SDS011;35045;51.194;7.268;2022-11-20T03:07:23;21.67;;;16.40;;
49217;SDS011;35045;51.194;7.268;2022-11-20T03:09:49;22.08;;;16.42;;
49217;SDS011;35045;51.194;7.268;2022-11-20T03:12:15;21.65;;;16.58;;
49217;SDS011;35045;51.194;7.268;2022-11-20T03:14:42;23.15;;;16.15;;
49217;SDS011;35045;51.194;7.268;2022-11-20T03:17:08;22.90;;;16.88;;
49217;SDS011;35045;51.194;7.268;2022-11-20T03:19:34;21.65;;;16.20;;
49217;SDS011;35045;51.194;7.268;2022-11-20T03:22:01;24.35;;;16.63;;
49217;SDS011;35045;51.194;7.268;2022-11-20T03:24:27;20.70;;;15.23;;
49217;SDS011;35045;51.194;7.268;2022-11-20T03:26:53;23.05;;;15.63;;
49217;SDS011;35045;51.194;7.268;2022-11-20T03:29:19;21.63;;;15.95;;
49217;SDS011;35045;51.194;7.268;2022-11-20T03:31:45;24.05;;;16.98;;
49217;SDS011;35045;51.194;7.268;2022-11-20T03:34:12;23.02;;;16.67;;
49217;SDS011;35045;51.194;7.268;2022-11-20T03:36:39;22.80;;;16.17;;
49217;SDS011;35045;51.194;7.268;2022-11-20T03:39:06;23.67;;;17.30;;
49217;SDS011;35045;51.194;7.268;2022-11-20T03:41:35;23.80;;;17.30;;
49217;SDS011;35045;51.194;7.268;2022-11-20T03:44:05;22.63;;;15.95;;
49217;SDS011;35045;51.194;7.268;2022-11-20T03:46:33;24.92;;;16.83;;
49217;SDS011;35045;51.194;7.268;2022-11-20T03:48:59;23.40;;;16.67;;
49217;SDS011;35045;51.194;7.268;2022-11-20T03:51:30;24.10;;;16.33;;
49217;SDS011;35045;51.194;7.268;2022-11-20T03:54:01;22.02;;;15.55;;
49217;SDS011;35045;51.194;7.268;2022-11-20T03:56:30;22.00;;;15.73;;
49217;SDS011;35045;51.194;7.268;2022-11-20T03:58:57;22.65;;;16.38;;
49217;SDS011;35045;51.194;7.268;2022-11-20T04:01:25;23.65;;;17.65;;
49217;SDS011;35045;51.194;7.268;2022-11-20T04:03:56;22.02;;;16.58;;
49217;SDS011;35045;51.194;7.268;2022-11-20T04:06:27;23.50;;;17.02;;
49217;SDS011;35045;51.194;7.268;2022-11-20T04:08:56;21.92;;;15.70;;
49217;SDS011;35045;51.194;7.268;2022-11-20T04:11:24;22.80;;;16.73;;
49217;SDS011;35045;51.194;7.268;2022-11-20T04:13:52;25.70;;;18.08;;
49217;SDS011;35045;51.194;7.268;2022-11-20T04:16:24;22.48;;;16.67;;
49217;SDS011;35045;51.194;7.268;2022-11-20T04:18:51;22.70;;;16.23;;
49217;SDS011;35045;51.194;7.268;2022-11-20T04:21:24;22.10;;;16.23;;
49217;SDS011;35045;51.194;7.268;2022-11-20T04:23:51;23.73;;;17.05;;
49217;SDS011;35045;51.194;7.268;2022-11-20T04:26:18;23.40;;;16.85;;
49217;SDS011;35045;51.194;7.268;2022-11-20T04:28:46;24.92;;;17.25;;
49217;SDS011;35045;51.194;7.268;2022-11-20T04:31:15;24.08;;;17.42;;
49217;SDS011;35045;51.194;7.268;2022-11-20T04:33:43;23.13;;;16.48;;
49217;SDS011;35045;51.194;7.268;2022-11-20T04:36:10;22.67;;;16.83;;
49217;SDS011;35045;51.194;7.268;2022-11-20T04:38:38;22.60;;;16.05;;
49217;SDS011;35045;51.194;7.268;2022-11-20T04:41:08;24.27;;;17.15;;
49217;SDS011;35045;51.194;7.268;2022-11-20T04:43:39;22.88;;;16.58;;
49217;SDS011;35045;51.194;7.268;2022-11-20T04:46:06;24.05;;;16.65;;
49217;SDS011;35045;51.194;7.268;2022-11-20T04:48:32;25.10;;;16.77;;
49217;SDS011;35045;51.194;7.268;2022-11-20T04:51:02;21.83;;;15.40;;
49217;SDS011;35045;51.194;7.268;2022-11-20T04:53:29;22.40;;;15.52;;
49217;SDS011;35045;51.194;7.268;2022-11-20T04:55:59;24.45;;;16.00;;
49217;SDS011;35045;51.194;7.268;2022-11-20T04:58:26;22.95;;;16.55;;
49217;SDS011;35045;51.194;7.268;2022-11-20T05:00:52;23.02;;;16.17;;
49217;SDS011;35045;51.194;7.268;2022-11-20T05:03:18;24.10;;;16.95;;
49217;SDS011;35045;51.194;7.268;2022-11-20T05:05:44;23.10;;;16.00;;
49217;SDS011;35045;51.194;7.268;2022-11-20T05:08:10;23.27;;;16.83;;
49217;SDS011;35045;51.194;7.268;2022-11-20T05:10:37;21.42;;;15.68;;
49217;SDS011;35045;51.194;7.268;2022-11-20T05:13:03;23.33;;;16.55;;
49217;SDS011;35045;51.194;7.268;2022-11-20T05:15:29;23.25;;;16.88;;
49217;SDS011;35045;51.194;7.268;2022-11-20T05:17:55;22.45;;;16.40;;
49217;SDS011;35045;51.194;7.268;2022-11-20T05:20:21;23.63;;;16.48;;
49217;SDS011;35045;51.194;7.268;2022-11-20T05:22:47;20.92;;;15.45;;
49217;SDS011;35045;51.194;7.268;2022-11-20T05:25:13;24.48;;;16.67;;
49217;SDS011;35045;51.194;7.268;2022-11-20T05:27:40;23.75;;;16.88;;
49217;SDS011;35045;51.194;7.268;2022-11-20T05:30:06;21.20;;;15.70;;
49217;SDS011;35045;51.194;7.268;2022-11-20T05:32:33;22.58;;;17.02;;
49217;SDS011;35045;51.194;7.268;2022-11-20T05:34:59;21.90;;;15.02;;
49217;SDS011;35045;51.194;7.268;2022-11-20T05:37:25;22.65;;;16.40;;
49217;SDS011;35045;51.194;7.268;2022-11-20T05:39:51;21.70;;;15.95;;
49217;SDS011;35045;51.194;7.268;2022-11-20T05:42:17;22.88;;;16.73;;
49217;SDS011;35045;51.194;7.268;2022-11-20T05:44:59;22.02;;;16.23;;
49217;SDS011;35045;51.194;7.268;2022-11-20T05:47:27;21.38;;;15.98;;
49217;SDS011;35045;51.194;7.268;2022-11-20T05:49:56;23.02;;;16.67;;
49217;SDS011;35045;51.194;7.268;2022-11-20T05:52:22;24.33;;;17.40;;
49217;SDS011;35045;51.194;7.268;2022-11-20T05:54:49;21.73;;;16.30;;
49217;SDS011;35045;51.194;7.268;2022-11-20T05:57:15;21.63;;;15.20;;
49217;SDS011;35045;51.194;7.268;2022-11-20T05:59:42;19.75;;;14.07;;
49217;SDS011;35045;51.194;7.268;2022-11-20T06:02:09;20.35;;;14.32;;
49217;SDS011;35045;51.194;7.268;2022-11-20T06:04:35;19.85;;;13.48;;
49217;SDS011;35045;51.194;7.268;2022-11-20T06:07:01;20.25;;;14.55;;
49217;SDS011;35045;51.194;7.268;2022-11-20T06:09:27;22.00;;;14.52;;
49217;SDS011;35045;51.194;7.268;2022-11-20T06:11:53;20.45;;;14.32;;
49217;SDS011;35045;51.194;7.268;2022-11-20T06:14:19;19.58;;;14.25;;
49217;SDS011;35045;51.194;7.268;2022-11-20T06:16:45;20.17;;;15.20;;
49217;SDS011;35045;51.194;7.268;2022-11-20T06:19:12;20.27;;;15.52;;
49217;SDS011;35045;51.194;7.268;2022-11-20T06:21:38;20.52;;;14.10;;
49217;SDS011;35045;51.194;7.268;2022-11-20T06:24:04;21.02;;;13.90;;
49217;SDS011;35045;51.194;7.268;2022-11-20T06:26:31;20.33;;;14.70;;
49217;SDS011;35045;51.194;7.268;2022-11-20T06:28:57;20.35;;;14.35;;
49217;SDS011;35045;51.194;7.268;2022-11-20T06:31:24;19.55;;;14.45;;
49217;SDS011;35045;51.194;7.268;2022-11-20T06:33:51;20.40;;;13.88;;
49217;SDS011;35045;51.194;7.268;2022-11-20T06:36:18;18.35;;;13.30;;
49217;SDS011;35045;51.194;7.268;2022-11-20T06:38:47;20.60;;;14.20;;
49217;SDS011;35045;51.194;7.268;2022-11-20T06:41:15;19.48;;;13.52;;
49217;SDS011;35045;51.194;7.268;2022-11-20T06:43:43;20.15;;;13.98;;
49217;SDS011;35045;51.194;7.268;2022-11-20T06:46:10;20.45;;;14.35;;
49217;SDS011;35045;51.194;7.268;2022-11-20T06:48:37;21.50;;;15.25;;
49217;SDS011;35045;51.194;7.268;2022-11-20T06:51:03;16.83;;;11.93;;
49217;SDS011;35045;51.194;7.268;2022-11-20T06:53:31;18.25;;;11.73;;
49217;SDS011;35045;51.194;7.268;2022-11-20T06:55:57;16.90;;;12.15;;
49217;SDS011;35045;51.194;7.268;2022-11-20T06:58:27;16.30;;;12.48;;
49217;SDS011;35045;51.194;7.268;2022-11-20T07:00:59;20.60;;;13.88;;
49217;SDS011;35045;51.194;7.268;2022-11-20T07:03:26;17.98;;;11.82;;
49217;SDS011;35045;51.194;7.268;2022-11-20T07:05:55;16.60;;;11.43;;
49217;SDS011;35045;51.194;7.268;2022-11-20T07:08:23;18.30;;;12.20;;
49217;SDS011;35045;51.194;7.268;2022-11-20T07:10:49;19.33;;;13.15;;
49217;SDS011;35045;51.194;7.268;2022-11-20T07:13:16;17.33;;;12.02;;
49217;SDS011;35045;51.194;7.268;2022-11-20T07:15:42;16.73;;;11.95;;
49217;SDS011;35045;51.194;7.268;2022-11-20T07:18:08;18.35;;;12.18;;
49217;SDS011;35045;51.194;7.268;2022-11-20T07:20:35;15.35;;;10.20;;
49217;SDS011;35045;51.194;7.268;2022-11-20T07:23:01;15.38;;;10.55;;
49217;SDS011;35045;51.194;7.268;2022-11-20T07:25:27;17.30;;;11.18;;
49217;SDS011;35045;51.194;7.268;2022-11-20T07:27:57;15.13;;;11.13;;
49217;SDS011;35045;51.194;7.268;2022-11-20T07:30:24;15.98;;;10.57;;
49217;SDS011;35045;51.194;7.268;2022-11-20T07:32:51;16.85;;;12.10;;
49217;SDS011;35045;51.194;7.268;2022-11-20T07:35:19;17.30;;;12.18;;
49217;SDS011;35045;51.194;7.268;2022-11-20T07:37:45;18.25;;;12.27;;
49217;SDS011;35045;51.194;7.268;2022-11-20T07:40:12;17.13;;;11.45;;
49217;SDS011;35045;51.194;7.268;2022-11-20T07:42:39;17.08;;;11.98;;
49217;SDS011;35045;51.194;7.268;2022-11-20T07:45:12;18.35;;;11.88;;
49217;SDS011;35045;51.194;7.268;2022-11-20T07:47:38;16.73;;;11.57;;
49217;SDS011;35045;51.194;7.268;2022-11-20T07:50:04;15.00;;;10.70;;
49217;SDS011;35045;51.194;7.268;2022-11-20T07:52:31;16.38;;;10.40;;
49217;SDS011;35045;51.194;7.268;2022-11-20T07:54:57;15.52;;;10.15;;
49217;SDS011;35045;51.194;7.268;2022-11-20T07:57:23;15.55;;;10.98;;
49217;SDS011;35045;51.194;7.268;2022-11-20T07:59:52;15.57;;;11.00;;
49217;SDS011;35045;51.194;7.268;2022-11-20T08:02:18;14.60;;;10.43;;
49217;SDS011;35045;51.194;7.268;2022-11-20T08:04:45;18.60;;;12.32;;
49217;SDS011;35045;51.194;7.268;2022-11-20T08:07:11;18.88;;;12.80;;
49217;SDS011;35045;51.194;7.268;2022-11-20T08:09:37;18.13;;;12.45;;
49217;SDS011;35045;51.194;7.268;2022-11-20T08:12:03;17.92;;;13.27;;
49217;SDS011;35045;51.194;7.268;2022-11-20T08:14:48;18.17;;;12.68;;
49217;SDS011;35045;51.194;7.268;2022-11-20T08:17:14;16.13;;;10.52;;
49217;SDS011;35045;51.194;7.268;2022-11-20T08:19:40;14.18;;;9.48;;
49217;SDS011;35045;51.194;7.268;2022-11-20T08:22:07;15.38;;;11.05;;
49217;SDS011;35045;51.194;7.268;2022-11-20T08:24:33;14.40;;;10.55;;
49217;SDS011;35045;51.194;7.268;2022-11-20T08:26:59;15.38;;;10.70;;
49217;SDS011;35045;51.194;7.268;2022-11-20T08:29:26;14.68;;;10.38;;
49217;SDS011;35045;51.194;7.268;2022-11-20T08:31:52;15.35;;;9.52;;
49217;SDS011;35045;51.194;7.268;2022-11-20T08:34:19;15.15;;;10.35;;
49217;SDS011;35045;51.194;7.268;2022-11-20T08:36:45;14.98;;;10.65;;
49217;SDS011;35045;51.194;7.268;2022-11-20T08:39:11;13.63;;;9.32;;
49217;SDS011;35045;51.194;7.268;2022-11-20T08:41:38;12.55;;;9.20;;
49217;SDS011;35045;51.194;7.268;2022-11-20T08:44:05;14.07;;;8.88;;
49217;SDS011;35045;51.194;7.268;2022-11-20T08:46:36;11.90;;;8.25;;
49217;SDS011;35045;51.194;7.268;2022-11-20T08:49:07;10.27;;;7.45;;
49217;SDS011;35045;51.194;7.268;2022-11-20T08:51:35;11.73;;;7.18;;
49217;SDS011;35045;51.194;7.268;2022-11-20T08:54:02;11.00;;;7.68;;
49217;SDS011;35045;51.194;7.268;2022-11-20T08:56:29;11.32;;;7.97;;
49217;SDS011;35045;51.194;7.268;2022-11-20T08:58:55;11.57;;;7.80;;
49217;SDS011;35045;51.194;7.268;2022-11-20T09:01:41;10.95;;;7.55;;
49217;SDS011;35045;51.194;7.268;2022-11-20T09:04:08;11.73;;;6.75;;
49217;SDS011;35045;51.194;7.268;2022-11-20T09:06:34;12.63;;;7.30;;
49217;SDS011;35045;51.194;7.268;2022-11-20T09:09:00;12.40;;;8.02;;
49217;SDS011;35045;51.194;7.268;2022-11-20T09:11:29;12.85;;;8.48;;
49217;SDS011;35045;51.194;7.268;2022-11-20T09:13:55;14.85;;;9.05;;
49217;SDS011;35045;51.194;7.268;2022-11-20T09:16:21;12.82;;;8.57;;
49217;SDS011;35045;51.194;7.268;2022-11-20T09:18:49;13.25;;;9.10;;
49217;SDS011;35045;51.194;7.268;2022-11-20T09:21:22;13.38;;;8.70;;
49217;SDS011;35045;51.194;7.268;2022-11-20T09:23:49;12.82;;;8.60;;
49217;SDS011;35045;51.194;7.268;2022-11-20T09:26:15;14.38;;;9.55;;
49217;SDS011;35045;51.194;7.268;2022-11-20T09:28:41;14.82;;;9.40;;
49217;SDS011;35045;51.194;7.268;2022-11-20T09:31:08;11.55;;;8.68;;
49217;SDS011;35045;51.194;7.268;2022-11-20T09:33:48;12.25;;;8.32;;
49217;SDS011;35045;51.194;7.268;2022-11-20T09:36:14;12.20;;;8.20;;
49217;SDS011;35045;51.194;7.268;2022-11-20T09:38:42;11.50;;;7.88;;
49217;SDS011;35045;51.194;7.268;2022-11-20T09:41:19;13.93;;;8.32;;
49217;SDS011;35045;51.194;7.268;2022-11-20T09:53:04;11.90;;;8.15;;
49217;SDS011;35045;51.194;7.268;2022-11-20T09:55:49;12.63;;;8.00;;
49217;SDS011;35045;51.194;7.268;2022-11-20T09:58:35;12.73;;;8.75;;
49217;SDS011;35045;51.194;7.268;2022-11-20T10:01:18;12.73;;;8.73;;
49217;SDS011;35045;51.194;7.268;2022-11-20T10:03:51;12.20;;;8.60;;
49217;SDS011;35045;51.194;7.268;2022-11-20T10:06:32;13.68;;;8.95;;
49217;SDS011;35045;51.194;7.268;2022-11-20T10:09:27;13.25;;;9.27;;
49217;SDS011;35045;51.194;7.268;2022-11-20T10:12:19;11.93;;;8.32;;
49217;SDS011;35045;51.194;7.268;2022-11-20T10:20:15;14.07;;;9.63;;
49217;SDS011;35045;51.194;7.268;2022-11-20T10:22:51;12.95;;;9.73;;
49217;SDS011;35045;51.194;7.268;2022-11-20T10:25:42;13.88;;;9.70;;
49217;SDS011;35045;51.194;7.268;2022-11-20T10:30:57;15.73;;;11.30;;
49217;SDS011;35045;51.194;7.268;2022-11-20T10:33:29;16.33;;;11.82;;
49217;SDS011;35045;51.194;7.268;2022-11-20T10:38:47;17.00;;;12.63;;
49217;SDS011;35045;51.194;7.268;2022-11-20T10:41:21;19.02;;;13.70;;
49217;SDS011;35045;51.194;7.268;2022-11-20T10:44:08;17.33;;;12.63;;
49217;SDS011;35045;51.194;7.268;2022-11-20T10:46:37;17.73;;;12.57;;
49217;SDS011;35045;51.194;7.268;2022-11-20T10:49:14;16.13;;;12.55;;
49217;SDS011;35045;51.194;7.268;2022-11-20T10:51:52;17.08;;;12.27;;
49217;SDS011;35045;51.194;7.268;2022-11-20T10:54:27;16.42;;;12.77;;
49217;SDS011;35045;51.194;7.268;2022-11-20T10:57:05;17.25;;;12.25;;
49217;SDS011;35045;51.194;7.268;2022-11-20T10:59:57;16.15;;;10.88;;
49217;SDS011;35045;51.194;7.268;2022-11-20T11:08:03;18.67;;;12.70;;
49217;SDS011;35045;51.194;7.268;2022-11-20T11:10:49;16.38;;;11.65;;
49217;SDS011;35045;51.194;7.268;2022-11-20T11:13:23;18.52;;;13.43;;
49217;SDS011;35045;51.194;7.268;2022-11-20T11:15:51;20.30;;;13.77;;
49217;SDS011;35045;51.194;7.268;2022-11-20T11:18:25;17.88;;;12.82;;
49217;SDS011;35045;51.194;7.268;2022-11-20T11:20:56;17.05;;;13.07;;
49217;SDS011;35045;51.194;7.268;2022-11-20T11:26:18;15.70;;;12.23;;
49217;SDS011;35045;51.194;7.268;2022-11-20T11:28:56;18.10;;;13.82;;
49217;SDS011;35045;51.194;7.268;2022-11-20T11:31:29;20.70;;;14.32;;
49217;SDS011;35045;51.194;7.268;2022-11-20T11:34:31;19.83;;;15.27;;
49217;SDS011;35045;51.194;7.268;2022-11-20T11:36:55;18.63;;;14.32;;
49217;SDS011;35045;51.194;7.268;2022-11-20T11:39:22;18.55;;;12.88;;
49217;SDS011;35045;51.194;7.268;2022-11-20T11:41:51;20.08;;;14.25;;
49217;SDS011;35045;51.194;7.268;2022-11-20T11:47:17;18.65;;;14.27;;
49217;SDS011;35045;51.194;7.268;2022-11-20T11:55:43;20.67;;;15.55;;
49217;SDS011;35045;51.194;7.268;2022-11-20T11:58:44;20.05;;;15.40;;
49217;SDS011;35045;51.194;7.268;2022-11-20T12:03:53;21.10;;;15.18;;
49217;SDS011;35045;51.194;7.268;2022-11-20T12:06:27;20.20;;;15.50;;
49217;SDS011;35045;51.194;7.268;2022-11-20T12:09:02;21.27;;;16.30;;
49217;SDS011;35045;51.194;7.268;2022-11-20T12:11:35;20.85;;;15.65;;
49217;SDS011;35045;51.194;7.268;2022-11-20T12:14:29;21.48;;;15.35;;
49217;SDS011;35045;51.194;7.268;2022-11-20T12:17:03;21.23;;;15.50;;
49217;SDS011;35045;51.194;7.268;2022-11-20T12:19:30;22.67;;;16.02;;
49217;SDS011;35045;51.194;7.268;2022-11-20T12:33:02;21.65;;;16.02;;
49217;SDS011;35045;51.194;7.268;2022-11-20T12:41:09;24.77;;;17.90;;
49217;SDS011;35045;51.194;7.268;2022-11-20T12:44:27;23.17;;;16.02;;
49217;SDS011;35045;51.194;7.268;2022-11-20T13:01:33;22.90;;;17.63;;
49217;SDS011;35045;51.194;7.268;2022-11-20T13:06:53;23.25;;;17.52;;
49217;SDS011;35045;51.194;7.268;2022-11-20T13:09:20;24.63;;;19.10;;
49217;SDS011;35045;51.194;7.268;2022-11-20T13:14:55;24.00;;;17.65;;
49217;SDS011;35045;51.194;7.268;2022-11-20T13:20:23;22.90;;;16.35;;
49217;SDS011;35045;51.194;7.268;2022-11-20T13:22:50;22.67;;;17.83;;
49217;SDS011;35045;51.194;7.268;2022-11-20T13:27:49;25.75;;;18.48;;
49217;SDS011;35045;51.194;7.268;2022-11-20T13:30:17;22.08;;;17.05;;
49217;SDS011;35045;51.194;7.268;2022-11-20T13:32:49;25.42;;;21.40;;
49217;SDS011;35045;51.194;7.268;2022-11-20T13:40:32;25.17;;;18.08;;
49217;SDS011;35045;51.194;7.268;2022-11-20T13:43:16;29.33;;;20.23;;
49217;SDS011;35045;51.194;7.268;2022-11-20T13:46:03;25.25;;;19.23;;
49217;SDS011;35045;51.194;7.268;2022-11-20T13:48:38;26.73;;;19.08;;
49217;SDS011;35045;51.194;7.268;2022-11-20T13:51:11;28.35;;;20.45;;
49217;SDS011;35045;51.194;7.268;2022-11-20T13:54:03;27.65;;;20.50;;
49217;SDS011;35045;51.194;7.268;2022-11-20T13:56:35;30.02;;;20.85;;
49217;SDS011;35045;51.194;7.268;2022-11-20T14:02:14;29.50;;;21.38;;
49217;SDS011;35045;51.194;7.268;2022-11-20T14:04:49;28.58;;;22.27;;
49217;SDS011;35045;51.194;7.268;2022-11-20T14:07:18;30.20;;;22.38;;
49217;SDS011;35045;51.194;7.268;2022-11-20T14:09:53;30.27;;;22.00;;
49217;SDS011;35045;51.194;7.268;2022-11-20T14:12:23;32.60;;;22.42;;
49217;SDS011;35045;51.194;7.268;2022-11-20T14:14:57;30.60;;;21.90;;
49217;SDS011;35045;51.194;7.268;2022-11-20T14:20:06;32.22;;;22.08;;
49217;SDS011;35045;51.194;7.268;2022-11-20T14:22:47;29.55;;;22.45;;
49217;SDS011;35045;51.194;7.268;2022-11-20T14:27:42;31.30;;;22.65;;
49217;SDS011;35045;51.194;7.268;2022-11-20T14:30:17;31.10;;;22.90;;
49217;SDS011;35045;51.194;7.268;2022-11-20T14:32:45;32.72;;;23.95;;
49217;SDS011;35045;51.194;7.268;2022-11-20T14:35:24;32.50;;;24.02;;
49217;SDS011;35045;51.194;7.268;2022-11-20T14:37:55;32.20;;;23.33;;
49217;SDS011;35045;51.194;7.268;2022-11-20T14:42:54;34.03;;;24.08;;
49217;SDS011;35045;51.194;7.268;2022-11-20T14:45:21;34.20;;;24.10;;
49217;SDS011;35045;51.194;7.268;2022-11-20T14:47:48;31.50;;;23.70;;
49217;SDS011;35045;51.194;7.268;2022-11-20T14:50:25;31.77;;;24.20;;
49217;SDS011;35045;51.194;7.268;2022-11-20T14:55:32;32.13;;;23.13;;
49217;SDS011;35045;51.194;7.268;2022-11-20T14:58:22;33.55;;;24.70;;
49217;SDS011;35045;51.194;7.268;2022-11-20T15:00:57;31.00;;;21.70;;
49217;SDS011;35045;51.194;7.268;2022-11-20T15:03:38;29.70;;;22.58;;
49217;SDS011;35045;51.194;7.268;2022-11-20T15:06:06;29.25;;;22.45;;
49217;SDS011;35045;51.194;7.268;2022-11-20T15:08:36;28.02;;;20.40;;
49217;SDS011;35045;51.194;7.268;2022-11-20T15:11:02;28.10;;;20.35;;
49217;SDS011;35045;51.194;7.268;2022-11-20T15:13:41;27.25;;;20.88;;
49217;SDS011;35045;51.194;7.268;2022-11-20T15:16:16;27.30;;;21.08;;
49217;SDS011;35045;51.194;7.268;2022-11-20T15:18:45;27.02;;;20.17;;
49217;SDS011;35045;51.194;7.268;2022-11-20T15:21:13;28.30;;;20.20;;
49217;SDS011;35045;51.194;7.268;2022-11-20T15:23:43;27.80;;;19.77;;
49217;SDS011;35045;51.194;7.268;2022-11-20T15:26:10;27.10;;;18.35;;
49217;SDS011;35045;51.194;7.268;2022-11-20T15:28:45;26.23;;;18.92;;
49217;SDS011;35045;51.194;7.268;2022-11-20T15:31:14;26.58;;;19.75;;
49217;SDS011;35045;51.194;7.268;2022-11-20T15:33:41;25.15;;;17.90;;
49217;SDS011;35045;51.194;7.268;2022-11-20T15:36:08;26.88;;;19.30;;
49217;SDS011;35045;51.194;7.268;2022-11-20T15:38:35;25.88;;;18.80;;
49217;SDS011;35045;51.194;7.268;2022-11-20T15:41:01;26.20;;;18.90;;
49217;SDS011;35045;51.194;7.268;2022-11-20T15:43:28;27.85;;;20.30;;
49217;SDS011;35045;51.194;7.268;2022-11-20T15:45:55;25.95;;;18.98;;
49217;SDS011;35045;51.194;7.268;2022-11-20T15:48:26;32.15;;;24.30;;
49217;SDS011;35045;51.194;7.268;2022-11-20T15:53:46;27.33;;;19.40;;
49217;SDS011;35045;51.194;7.268;2022-11-20T15:56:12;25.13;;;18.15;;
49217;SDS011;35045;51.194;7.268;2022-11-20T15:58:39;25.52;;;18.85;;
49217;SDS011;35045;51.194;7.268;2022-11-20T16:01:13;27.98;;;20.05;;
49217;SDS011;35045;51.194;7.268;2022-11-20T16:03:40;25.52;;;17.40;;
49217;SDS011;35045;51.194;7.268;2022-11-20T16:06:07;26.77;;;19.67;;
49217;SDS011;35045;51.194;7.268;2022-11-20T16:08:35;24.25;;;17.60;;
49217;SDS011;35045;51.194;7.268;2022-11-20T16:11:02;26.83;;;18.45;;
49217;SDS011;35045;51.194;7.268;2022-11-20T16:13:30;29.00;;;19.10;;
49217;SDS011;35045;51.194;7.268;2022-11-20T16:18:44;25.92;;;17.05;;
49217;SDS011;35045;51.194;7.268;2022-11-20T16:21:11;39.40;;;18.88;;
49217;SDS011;35045;51.194;7.268;2022-11-20T16:23:39;26.20;;;18.00;;
49217;SDS011;35045;51.194;7.268;2022-11-20T16:26:12;26.20;;;20.10;;
49217;SDS011;35045;51.194;7.268;2022-11-20T16:28:40;25.33;;;18.25;;
49217;SDS011;35045;51.194;7.268;2022-11-20T16:31:13;25.60;;;18.23;;